createdAt,value
2019-05-15T00:01:19.269Z,11.35
2019-05-15T00:03:49.295Z,11.30
2019-05-15T00:06:19.043Z,11.21
2019-05-15T00:08:48.091Z,11.22
2019-05-15T00:11:19.026Z,11.23
2019-05-15T00:13:48.317Z,11.19
2019-05-15T00:16:18.072Z,11.15
2019-05-15T00:18:48.228Z,11.18
2019-05-15T00:21:17.996Z,11.04
2019-05-15T00:23:49.248Z,11.04
2019-05-15T00:26:18.184Z,10.99
2019-05-15T00:28:48.004Z,10.95
2019-05-15T00:31:18.604Z,10.93
2019-05-15T00:33:48.226Z,10.88
2019-05-15T00:36:19.044Z,10.86
2019-05-15T00:38:48.362Z,10.84
2019-05-15T00:41:18.506Z,10.86
2019-05-15T00:43:49.402Z,10.88
2019-05-15T00:46:18.329Z,10.84
2019-05-15T00:48:48.796Z,10.73
2019-05-15T00:51:19.508Z,10.75
2019-05-15T00:53:48.320Z,10.70
2019-05-15T00:56:19.261Z,10.68
2019-05-15T00:58:48.213Z,10.65
2019-05-15T01:01:19.080Z,10.61
2019-05-15T01:03:49.172Z,10.61
2019-05-15T01:06:19.093Z,10.60
2019-05-15T01:08:48.269Z,10.56
2019-05-15T01:11:19.007Z,10.53
2019-05-15T01:13:48.176Z,10.55
2019-05-15T01:16:18.631Z,10.52
2019-05-15T01:18:49.081Z,10.50
2019-05-15T01:21:18.795Z,10.47
2019-05-15T01:23:48.422Z,10.46
2019-05-15T01:26:18.815Z,10.41
2019-05-15T01:28:49.420Z,10.38
2019-05-15T01:31:19.052Z,10.36
2019-05-15T01:33:48.124Z,10.34
2019-05-15T01:36:19.108Z,10.31
2019-05-15T01:38:48.090Z,10.30
2019-05-15T01:41:18.740Z,10.32
2019-05-15T01:43:48.959Z,10.29
2019-05-15T01:46:19.097Z,10.27
2019-05-15T01:48:49.279Z,10.19
2019-05-15T01:51:18.509Z,10.23
2019-05-15T01:53:48.026Z,10.22
2019-05-15T01:56:18.794Z,10.12
2019-05-15T01:58:48.681Z,10.11
2019-05-15T02:01:19.265Z,10.10
2019-05-15T02:03:49.289Z,10.15
2019-05-15T02:06:18.965Z,10.08
2019-05-15T02:08:49.674Z,10.09
2019-05-15T02:11:18.130Z,10.03
2019-05-15T02:13:48.022Z,10.03
2019-05-15T02:16:18.980Z,10.01
2019-05-15T02:18:48.917Z,10.04
2019-05-15T02:21:18.332Z,10.03
2019-05-15T02:23:48.177Z,10.03
2019-05-15T02:26:18.878Z,9.99
2019-05-15T02:28:48.801Z,10.01
2019-05-15T02:31:19.630Z,9.99
2019-05-15T02:33:49.886Z,9.88
2019-05-15T02:36:20.468Z,9.83
2019-05-15T02:38:48.721Z,9.86
2019-05-15T02:41:19.533Z,9.84
2019-05-15T02:43:50.065Z,9.75
2019-05-15T02:46:19.486Z,9.73
2019-05-15T02:48:48.938Z,9.69
2019-05-15T02:51:19.289Z,9.71
2019-05-15T02:53:50.099Z,9.72
2019-05-15T02:56:20.379Z,9.64
2019-05-15T02:58:49.136Z,9.64
2019-05-15T03:01:18.901Z,9.60
2019-05-15T03:03:49.661Z,9.55
2019-05-15T03:06:19.251Z,9.53
2019-05-15T03:08:49.661Z,9.53
2019-05-15T03:11:19.074Z,9.56
2019-05-15T03:13:50.505Z,9.53
2019-05-15T03:16:19.494Z,9.49
2019-05-15T03:18:50.466Z,9.45
2019-05-15T03:21:18.866Z,9.47
2019-05-15T03:23:50.540Z,9.43
2019-05-15T03:26:19.807Z,9.44
2019-05-15T03:28:49.582Z,9.45
2019-05-15T03:31:40.136Z,9.36
2019-05-15T03:33:53.301Z,9.31
2019-05-15T03:36:23.545Z,9.35
2019-05-15T03:38:49.858Z,9.37
2019-05-15T03:41:19.668Z,9.31
2019-05-15T03:43:49.631Z,9.31
2019-05-15T03:46:19.988Z,9.28
2019-05-15T03:48:48.850Z,9.24
2019-05-15T03:51:19.932Z,9.25
2019-05-15T03:53:49.692Z,9.28
2019-05-15T03:56:19.079Z,9.30
2019-05-15T03:58:49.378Z,9.28
2019-05-15T04:01:32.514Z,9.32
2019-05-15T04:03:49.579Z,9.27
2019-05-15T04:06:19.257Z,9.26
2019-05-15T04:08:49.561Z,9.22
2019-05-15T04:11:20.263Z,9.21
2019-05-15T04:13:49.946Z,9.25
2019-05-15T04:16:19.242Z,9.29
2019-05-15T04:18:49.051Z,9.30
2019-05-15T04:21:20.085Z,9.29
2019-05-15T04:23:49.979Z,9.32
2019-05-15T04:26:19.401Z,9.36
2019-05-15T04:28:49.445Z,9.42
2019-05-15T04:31:19.430Z,9.41
2019-05-15T04:33:49.135Z,9.39
2019-05-15T04:36:19.165Z,9.42
2019-05-15T04:38:49.836Z,9.44
2019-05-15T04:41:19.810Z,9.42
2019-05-15T04:43:49.355Z,9.49
2019-05-15T04:49:29.173Z,9.55
2019-05-15T04:52:03.368Z,9.62
2019-05-15T04:54:49.503Z,9.64
2019-05-15T04:57:19.398Z,9.66
2019-05-15T05:00:09.695Z,9.70
2019-05-15T05:03:20.086Z,9.81
2019-05-15T05:05:59.078Z,9.87
2019-05-15T05:08:29.181Z,10.01
2019-05-15T05:11:01.050Z,10.07
2019-05-15T05:13:29.873Z,10.14
2019-05-15T05:39:35.621Z,10.78
2019-05-15T05:42:04.393Z,10.86
2019-05-15T05:44:32.977Z,10.90
2019-05-15T05:49:43.906Z,11.02
2019-05-15T05:55:04.760Z,11.15
2019-05-15T05:57:38.172Z,11.23
2019-05-15T06:00:10.094Z,11.26
2019-05-15T06:03:01.722Z,11.33
2019-05-15T06:11:09.961Z,11.58
2019-05-15T06:22:27.691Z,11.85
2019-05-15T06:24:57.896Z,11.92
2019-05-15T06:27:27.932Z,11.96
2019-05-15T06:29:57.985Z,12.04
2019-05-15T06:32:29.625Z,12.11
2019-05-15T06:34:58.620Z,12.20
2019-05-15T06:37:28.677Z,12.19
2019-05-15T06:39:58.815Z,12.29
2019-05-15T06:42:28.390Z,12.36
2019-05-15T06:44:58.958Z,12.51
2019-05-15T06:47:28.431Z,12.59
2019-05-15T06:49:58.004Z,12.67
2019-05-15T06:52:28.454Z,12.80
2019-05-15T06:54:59.195Z,12.90
2019-05-15T06:57:28.719Z,12.96
2019-05-15T06:59:57.989Z,13.10
2019-05-15T07:02:28.521Z,13.23
2019-05-15T07:04:58.360Z,13.31
2019-05-15T07:07:28.771Z,13.41
2019-05-15T07:09:58.164Z,13.47
2019-05-15T07:12:28.123Z,13.55
2019-05-15T07:14:58.284Z,13.63
2019-05-15T07:17:28.732Z,13.69
2019-05-15T07:19:59.152Z,13.79
2019-05-15T07:22:28.965Z,13.93
2019-05-15T07:24:58.276Z,13.97
2019-05-15T07:27:28.320Z,14.00
2019-05-15T07:29:58.382Z,14.04
2019-05-15T07:43:32.653Z,14.45
2019-05-15T07:46:01.854Z,14.54
2019-05-15T07:48:30.663Z,14.53
2019-05-15T07:56:48.816Z,14.91
2019-05-15T07:59:18.718Z,14.96
2019-05-15T08:01:48.929Z,14.91
2019-05-15T08:04:28.141Z,14.88
2019-05-15T08:06:49.078Z,15.02
2019-05-15T08:09:18.125Z,15.19
2019-05-15T08:11:48.590Z,15.40
2019-05-15T08:14:18.492Z,15.48
2019-05-15T08:16:48.477Z,15.42
2019-05-15T08:19:23.832Z,15.48
2019-05-15T08:21:52.560Z,15.43
2019-05-15T08:24:21.198Z,15.56
2019-05-15T08:26:49.967Z,15.66
2019-05-15T08:29:21.593Z,15.62
2019-05-15T08:31:48.883Z,15.61
2019-05-15T08:34:19.496Z,15.69
2019-05-15T08:36:48.475Z,15.87
2019-05-15T08:39:19.082Z,15.97
2019-05-15T08:41:48.471Z,15.94
2019-05-15T08:44:18.652Z,15.77
2019-05-15T08:46:48.028Z,15.86
2019-05-15T08:49:19.843Z,15.88
2019-05-15T08:51:48.671Z,16.08
2019-05-15T08:54:18.292Z,15.91
2019-05-15T08:56:48.340Z,15.97
2019-05-15T08:59:18.728Z,16.18
2019-05-15T09:01:48.955Z,16.15
2019-05-15T09:04:30.150Z,16.19
2019-05-15T09:06:49.742Z,16.26
2019-05-15T09:09:18.815Z,16.38
2019-05-15T09:11:48.341Z,16.44
2019-05-15T09:14:18.495Z,16.54
2019-05-15T09:16:48.965Z,16.56
2019-05-15T09:19:18.449Z,16.46
2019-05-15T09:21:49.134Z,16.52
2019-05-15T09:27:00.035Z,16.52
2019-05-15T09:32:19.106Z,16.65
2019-05-15T09:34:54.773Z,16.70
2019-05-15T09:37:18.608Z,16.64
2019-05-15T09:39:48.996Z,16.61
2019-05-15T09:42:18.135Z,16.84
2019-05-15T09:44:48.598Z,16.98
2019-05-15T09:47:18.920Z,16.81
2019-05-15T09:49:50.382Z,16.70
2019-05-15T09:52:22.669Z,16.78
2019-05-15T09:54:49.432Z,16.98
2019-05-15T09:57:18.795Z,17.12
2019-05-15T09:59:58.677Z,17.15
2019-05-15T10:02:29.636Z,17.07
2019-05-15T10:05:06.495Z,17.10
2019-05-15T10:07:48.452Z,17.04
2019-05-15T10:10:19.042Z,17.07
2019-05-15T10:12:49.524Z,17.24
2019-05-15T10:15:18.584Z,17.27
2019-05-15T10:17:50.674Z,17.34
2019-05-15T10:20:18.553Z,17.41
2019-05-15T10:22:48.417Z,17.53
2019-05-15T10:25:18.971Z,17.79
2019-05-15T10:27:48.836Z,17.58
2019-05-15T10:30:18.849Z,17.60
2019-05-15T10:32:48.771Z,17.65
2019-05-15T10:35:25.481Z,17.60
2019-05-15T10:37:48.733Z,17.60
2019-05-15T10:40:20.334Z,17.59
2019-05-15T10:42:49.499Z,17.54
2019-05-15T10:45:19.301Z,17.53
2019-05-15T10:47:49.638Z,17.69
2019-05-15T10:50:19.248Z,17.76
2019-05-15T10:52:48.881Z,17.72
2019-05-15T10:55:18.943Z,17.70
2019-05-15T10:57:48.042Z,17.86
2019-05-15T11:00:19.253Z,17.95
2019-05-15T11:03:13.050Z,17.94
2019-05-15T11:05:54.345Z,17.88
2019-05-15T11:11:25.749Z,17.90
2019-05-15T11:13:54.443Z,17.93
2019-05-15T11:16:23.301Z,18.18
2019-05-15T11:27:41.477Z,18.34
2019-05-15T11:30:10.025Z,18.36
2019-05-15T11:32:39.250Z,18.36
2019-05-15T11:35:08.100Z,18.48
2019-05-15T11:40:51.629Z,18.65
2019-05-15T11:43:20.251Z,18.75
2019-05-15T11:53:58.860Z,19.30
2019-05-15T11:56:34.782Z,19.38
2019-05-15T13:01:16.658Z,26.06
2019-05-15T13:09:42.938Z,26.49
2019-05-15T13:15:00.931Z,26.73
2019-05-15T13:17:53.830Z,26.63
2019-05-15T13:20:22.949Z,26.76
2019-05-15T13:34:22.063Z,26.72
2019-05-15T13:36:50.634Z,26.52
2019-05-15T13:39:19.224Z,27.19
2019-05-15T13:41:48.420Z,27.35
2019-05-15T13:44:18.751Z,27.12
2019-05-15T13:46:47.921Z,26.97
2019-05-15T13:49:18.587Z,26.96
2019-05-15T13:51:48.803Z,26.88
2019-05-15T13:54:18.779Z,27.16
2019-05-15T13:56:48.801Z,27.14
2019-05-15T13:59:17.679Z,26.69
2019-05-15T14:01:48.434Z,26.46
2019-05-15T14:04:18.343Z,25.81
2019-05-15T14:06:48.716Z,26.07
2019-05-15T14:09:16.965Z,25.59
2019-05-15T14:11:48.895Z,25.88
2019-05-15T14:14:15.903Z,25.55
2019-05-15T14:16:44.464Z,25.77
2019-05-15T14:19:13.038Z,25.84
2019-05-15T14:21:41.566Z,25.84
2019-05-15T14:24:10.160Z,26.25
2019-05-15T14:26:38.709Z,26.39
2019-05-15T14:29:08.994Z,26.11
2019-05-15T14:31:39.479Z,26.05
2019-05-15T14:34:08.828Z,25.60
2019-05-15T14:36:37.455Z,26.11
2019-05-15T14:39:08.144Z,26.50
2019-05-15T14:41:38.192Z,26.12
2019-05-15T14:44:17.294Z,26.23
2019-05-15T14:46:38.239Z,26.76
2019-05-15T14:49:09.041Z,26.95
2019-05-15T14:51:39.180Z,27.23
2019-05-15T14:54:09.082Z,27.30
2019-05-15T14:56:38.338Z,27.22
2019-05-15T14:59:09.161Z,27.24
2019-05-15T15:01:38.371Z,26.87
2019-05-15T15:04:08.831Z,26.76
2019-05-15T15:06:37.403Z,26.98
2019-05-15T15:09:08.453Z,26.57
2019-05-15T15:11:38.553Z,27.02
2019-05-15T15:14:08.682Z,27.59
2019-05-15T15:16:38.456Z,27.42
2019-05-15T15:19:07.157Z,27.08
2019-05-15T15:21:38.166Z,26.68
2019-05-15T15:24:08.278Z,26.75
2019-05-15T15:26:38.890Z,26.61
2019-05-15T15:29:08.514Z,27.32
2019-05-15T15:31:38.844Z,26.63
2019-05-15T15:34:08.619Z,26.79
2019-05-15T15:36:37.977Z,26.78
2019-05-15T15:39:08.309Z,26.98
2019-05-15T15:41:39.036Z,27.47
2019-05-15T15:44:08.584Z,27.42
2019-05-15T15:46:39.530Z,26.98
2019-05-15T15:49:08.836Z,27.34
2019-05-15T15:51:38.078Z,26.68
2019-05-15T15:54:08.487Z,26.51
2019-05-15T15:56:39.178Z,26.99
2019-05-15T15:59:08.795Z,26.78
2019-05-15T16:01:39.006Z,26.87
2019-05-15T16:04:08.489Z,26.55
2019-05-15T16:06:38.808Z,26.37
2019-05-15T16:09:08.515Z,26.15
2019-05-15T16:11:38.566Z,26.44
2019-05-15T16:14:09.178Z,26.34
2019-05-15T16:16:38.103Z,26.37
2019-05-15T16:19:06.873Z,26.17
2019-05-15T16:21:35.506Z,25.75
2019-05-15T16:24:14.867Z,25.44
2019-05-15T16:26:34.305Z,25.73
2019-05-15T16:29:02.903Z,25.44
2019-05-15T16:31:31.501Z,25.08
2019-05-15T16:34:00.477Z,25.10
2019-05-15T16:36:29.058Z,24.98
2019-05-15T16:39:07.827Z,24.79
2019-05-15T16:41:29.048Z,24.16
2019-05-15T16:43:57.888Z,22.95
2019-05-15T16:46:28.172Z,22.65
2019-05-15T16:48:58.346Z,22.00
2019-05-15T16:51:28.503Z,21.67
2019-05-15T16:53:58.198Z,21.22
2019-05-15T16:56:28.368Z,20.96
2019-05-15T16:58:59.514Z,20.87
2019-05-15T17:01:29.023Z,20.73
2019-05-15T17:03:57.579Z,20.28
2019-05-15T17:06:28.103Z,20.12
2019-05-15T17:08:57.973Z,20.11
2019-05-15T17:11:28.837Z,20.06
2019-05-15T17:13:59.017Z,19.83
2019-05-15T17:16:27.219Z,19.73
2019-05-15T17:18:58.167Z,19.59
2019-05-15T17:21:28.421Z,19.38
2019-05-15T17:23:58.220Z,19.26
2019-05-15T17:26:28.798Z,19.24
2019-05-15T17:28:58.178Z,19.27
2019-05-15T17:31:28.645Z,19.09
2019-05-15T17:33:58.207Z,19.05
2019-05-15T17:36:31.481Z,18.92
2019-05-15T17:38:58.090Z,18.83
2019-05-15T17:41:28.597Z,18.83
2019-05-15T17:43:57.980Z,18.71
2019-05-15T17:46:29.328Z,18.60
2019-05-15T17:49:05.471Z,18.60
2019-05-15T17:51:27.684Z,18.50
2019-05-15T17:53:58.295Z,18.46
2019-05-15T17:56:28.358Z,18.37
2019-05-15T17:58:58.184Z,18.34
2019-05-15T18:01:28.221Z,18.32
2019-05-15T18:03:59.173Z,18.24
2019-05-15T18:06:28.916Z,18.09
2019-05-15T18:08:59.328Z,18.06
2019-05-15T18:11:28.801Z,18.01
2019-05-15T18:13:58.229Z,17.98
2019-05-15T18:16:26.963Z,17.92
2019-05-15T18:18:55.516Z,17.89
2019-05-15T18:21:24.120Z,17.78
2019-05-15T18:23:52.694Z,17.77
2019-05-15T18:26:21.244Z,17.72
2019-05-15T18:28:49.757Z,17.70
2019-05-15T18:31:18.343Z,17.63
2019-05-15T18:33:53.741Z,17.57
2019-05-15T18:36:17.188Z,17.53
2019-05-15T18:38:48.068Z,17.52
2019-05-15T18:41:17.977Z,17.47
2019-05-15T18:43:48.279Z,17.36
2019-05-15T18:46:18.294Z,17.27
2019-05-15T18:48:48.231Z,17.32
2019-05-15T18:51:16.820Z,17.27
2019-05-15T18:53:45.416Z,17.22
2019-05-15T18:56:13.966Z,17.17
2019-05-15T18:58:42.508Z,17.12
2019-05-15T19:01:11.068Z,17.07
2019-05-15T19:03:39.648Z,17.05
2019-05-15T19:06:08.898Z,16.99
2019-05-15T19:08:38.804Z,16.91
2019-05-15T19:11:07.439Z,16.83
2019-05-15T19:13:35.946Z,16.75
2019-05-15T19:16:04.688Z,16.71
2019-05-15T19:18:33.278Z,16.70
2019-05-15T19:21:01.887Z,16.65
2019-05-15T19:23:30.450Z,16.57
2019-05-15T19:25:58.940Z,16.50
2019-05-15T19:28:28.627Z,16.44
2019-05-15T19:30:58.539Z,16.38
2019-05-15T19:33:36.487Z,16.31
2019-05-15T19:35:57.613Z,16.25
2019-05-15T19:38:27.927Z,16.21
2019-05-15T19:41:02.329Z,16.14
2019-05-15T19:43:28.560Z,16.09
2019-05-15T19:45:58.440Z,16.00
2019-05-15T19:48:27.112Z,15.93
2019-05-15T19:50:58.136Z,15.87
2019-05-15T19:53:28.190Z,15.80
2019-05-15T19:55:57.976Z,15.80
2019-05-15T19:58:28.560Z,15.76
2019-05-15T20:00:56.903Z,15.77
2019-05-15T20:03:25.587Z,15.70
2019-05-15T20:05:54.283Z,15.61
2019-05-15T20:08:22.806Z,15.52
2019-05-15T20:10:51.418Z,15.52
2019-05-15T20:13:19.895Z,15.47
2019-05-15T20:15:48.711Z,15.39
2019-05-15T20:18:18.468Z,15.30
2019-05-15T20:20:47.812Z,15.32
2019-05-15T20:23:18.273Z,15.27
2019-05-15T20:25:46.739Z,15.25
2019-05-15T20:28:15.343Z,15.28
2019-05-15T20:30:43.843Z,15.19
2019-05-15T20:33:12.551Z,15.17
2019-05-15T20:35:41.042Z,15.14
2019-05-15T20:38:09.692Z,15.12
2019-05-15T20:40:38.180Z,15.12
2019-05-15T20:43:08.218Z,15.11
2019-05-15T20:45:36.976Z,15.06
2019-05-15T20:48:05.474Z,15.06
2019-05-15T20:50:34.266Z,15.07
2019-05-15T20:53:02.885Z,15.07
2019-05-15T20:55:31.443Z,15.09
2019-05-15T20:58:00.036Z,14.97
2019-05-15T21:00:28.627Z,14.95
2019-05-15T21:02:57.825Z,14.95
2019-05-15T21:05:27.813Z,14.94
2019-05-15T21:07:56.571Z,14.93
2019-05-15T21:10:25.196Z,14.96
2019-05-15T21:12:53.779Z,14.93
2019-05-15T21:15:22.377Z,14.90
2019-05-15T21:18:09.817Z,14.90
2019-05-15T21:20:21.185Z,14.90
2019-05-15T21:22:49.685Z,14.85
2019-05-15T21:25:19.639Z,14.80
2019-05-15T21:27:48.974Z,14.73
2019-05-15T21:30:19.002Z,14.72
2019-05-15T21:32:49.416Z,14.68
2019-05-15T21:35:18.133Z,14.65
2019-05-15T21:37:48.647Z,14.63
2019-05-15T21:40:17.472Z,14.60
2019-05-15T21:42:48.837Z,14.58
2019-05-15T21:45:18.286Z,14.54
2019-05-15T21:47:47.004Z,14.57
2019-05-15T21:50:15.558Z,14.56
2019-05-15T21:52:44.138Z,14.55
2019-05-15T21:55:12.705Z,14.49
2019-05-15T21:57:42.827Z,14.48
2019-05-15T22:00:14.814Z,14.44
2019-05-15T22:02:43.423Z,14.35
2019-05-15T22:05:12.008Z,14.34
2019-05-15T22:07:40.547Z,14.28
2019-05-15T22:10:11.075Z,14.23
2019-05-15T22:12:39.319Z,14.20
2019-05-15T22:15:08.989Z,14.14
2019-05-15T22:17:39.011Z,14.12
2019-05-15T22:20:08.659Z,14.09
2019-05-15T22:22:37.371Z,13.99
2019-05-15T22:25:08.563Z,13.94
2019-05-15T22:27:38.279Z,13.89
2019-05-15T22:30:08.281Z,13.71
2019-05-15T22:32:38.687Z,13.67
2019-05-15T22:35:13.470Z,13.64
2019-05-15T22:37:38.676Z,13.57
2019-05-15T22:40:08.869Z,13.53
2019-05-15T22:42:39.129Z,13.45
2019-05-15T22:45:11.605Z,13.42
2019-05-15T22:47:39.271Z,13.36
2019-05-15T22:50:08.354Z,13.32
2019-05-15T22:52:38.878Z,13.28
2019-05-15T22:55:07.429Z,13.24
2019-05-15T22:57:36.010Z,13.19
2019-05-15T23:00:05.824Z,13.14
2019-05-15T23:02:34.289Z,13.12
2019-05-15T23:05:03.711Z,13.12
2019-05-15T23:07:32.195Z,13.05
2019-05-15T23:10:00.775Z,13.04
2019-05-15T23:12:29.283Z,13.01
2019-05-15T23:14:57.964Z,12.97
2019-05-15T23:17:27.736Z,12.89
2019-05-15T23:19:58.171Z,12.83
2019-05-15T23:22:27.958Z,12.78
2019-05-15T23:24:58.467Z,12.80
2019-05-15T23:27:28.743Z,12.79
2019-05-15T23:29:58.214Z,12.69
2019-05-15T23:32:28.766Z,12.64
2019-05-15T23:34:58.433Z,12.57
2019-05-15T23:37:28.073Z,12.55
2019-05-15T23:39:58.000Z,12.49
2019-05-15T23:42:29.044Z,12.50
2019-05-15T23:44:56.793Z,12.39
2019-05-15T23:47:25.324Z,12.37
2019-05-15T23:49:53.874Z,12.33
2019-05-15T23:52:22.440Z,12.23
2019-05-15T23:54:50.919Z,12.21
2019-05-15T23:57:19.437Z,12.23
2019-05-15T23:59:48.001Z,12.14
